createdAt,value
2022-08-07T00:00:40.077Z,100970.47
2022-08-07T00:05:41.866Z,100974.91
2022-08-07T00:10:48.023Z,100967.81
2022-08-07T00:15:51.707Z,100976.09
2022-08-07T00:21:01.754Z,100974.06
2022-08-07T00:26:18.819Z,100962.28
2022-08-07T00:31:37.845Z,100952.03
2022-08-07T00:36:44.515Z,100960.91
2022-08-07T00:42:02.601Z,100953.25
2022-08-07T00:47:15.877Z,100955.75
2022-08-07T00:52:28.599Z,100956.16
2022-08-07T00:57:34.889Z,100950.78
2022-08-07T01:02:36.462Z,100948.56
2022-08-07T01:07:41.187Z,100959.28
2022-08-07T01:12:43.963Z,100952.88
2022-08-07T01:17:55.782Z,100960.06
2022-08-07T01:23:00.744Z,100968.81
2022-08-07T01:28:13.784Z,100964.69
2022-08-07T01:33:15.518Z,100955.13
2022-08-07T01:38:25.586Z,100955.50
2022-08-07T01:43:38.022Z,100961.19
2022-08-07T01:48:42.232Z,100955.63
2022-08-07T01:54:09.351Z,100957.19
2022-08-07T01:59:21.707Z,100959.69
2022-08-07T02:04:55.847Z,100950.38
2022-08-07T02:09:59.510Z,100946.47
2022-08-07T02:15:06.081Z,100953.56
2022-08-07T02:20:17.285Z,100944.44
2022-08-07T02:26:10.892Z,100936.22
2022-08-07T02:30:46.414Z,100929.75
2022-08-07T02:36:30.865Z,100930.81
2022-08-07T02:41:13.717Z,100919.91
2022-08-07T02:46:26.025Z,100920.88
2022-08-07T02:51:42.366Z,100911.66
2022-08-07T02:56:53.579Z,100910.84
2022-08-07T03:01:56.277Z,100906.69
2022-08-07T03:07:07.104Z,100899.94
2022-08-07T03:12:22.336Z,100902.63
2022-08-07T03:17:34.181Z,100900.34
2022-08-07T03:22:55.455Z,100921.09
2022-08-07T03:28:09.401Z,100919.44
2022-08-07T03:33:21.118Z,100925.31
2022-08-07T03:38:29.604Z,100922.00
2022-08-07T03:43:33.069Z,100922.94
2022-08-07T03:48:45.458Z,100930.56
2022-08-07T03:54:33.904Z,100930.56
2022-08-07T03:59:21.181Z,100925.50
2022-08-07T04:04:23.378Z,100925.56
2022-08-07T04:09:25.609Z,100929.00
2022-08-07T04:14:47.803Z,100928.97
2022-08-07T04:19:53.988Z,100934.81
2022-08-07T04:24:58.087Z,100936.34
2022-08-07T04:30:02.011Z,100938.09
2022-08-07T04:35:07.037Z,100948.38
2022-08-07T04:40:13.145Z,100953.34
2022-08-07T04:45:18.666Z,100950.22
2022-08-07T04:50:39.390Z,100957.03
2022-08-07T04:58:14.632Z,100954.97
2022-08-07T05:01:56.006Z,100953.38
2022-08-07T05:07:27.566Z,100953.78
2022-08-07T05:12:46.298Z,100949.38
2022-08-07T05:18:01.689Z,100957.63
2022-08-07T05:23:19.387Z,100952.91
2022-08-07T05:28:27.627Z,100954.50
2022-08-07T05:33:31.388Z,100950.94
2022-08-07T05:38:59.659Z,100953.31
2022-08-07T05:44:08.430Z,100951.13
2022-08-07T05:49:14.663Z,100955.53
2022-08-07T05:54:44.416Z,100957.16
2022-08-07T05:59:56.182Z,100955.53
2022-08-07T06:05:05.894Z,100956.38
2022-08-07T06:10:11.204Z,100957.25
2022-08-07T06:15:20.000Z,100956.28
2022-08-07T06:20:25.397Z,100950.97
2022-08-07T06:25:36.838Z,100950.28
2022-08-07T06:30:45.359Z,100956.94
2022-08-07T06:36:06.485Z,100948.53
2022-08-07T06:41:18.656Z,100952.56
2022-08-07T06:46:41.460Z,100948.38
2022-08-07T06:51:49.949Z,100943.63
2022-08-07T06:56:53.800Z,100931.19
2022-08-07T07:01:58.606Z,100932.53
2022-08-07T07:07:02.344Z,100922.84
2022-08-07T07:12:48.957Z,100922.56
2022-08-07T07:18:02.554Z,100923.84
2022-08-07T07:24:09.952Z,100921.38
2022-08-07T07:29:22.816Z,100918.50
2022-08-07T07:34:00.565Z,100913.75
2022-08-07T07:39:04.227Z,100903.69
2022-08-07T07:44:14.514Z,100906.72
2022-08-07T07:50:34.298Z,100904.59
2022-08-07T07:54:50.633Z,100900.25
2022-08-07T07:59:55.562Z,100901.34
2022-08-07T08:04:57.481Z,100892.03
2022-08-07T08:10:04.986Z,100892.88
2022-08-07T08:15:08.278Z,100890.88
2022-08-07T08:20:19.185Z,100873.88
2022-08-07T08:25:49.465Z,100875.75
2022-08-07T08:30:57.650Z,100876.22
2022-08-07T08:36:02.461Z,100871.28
2022-08-07T08:41:21.455Z,100876.16
2022-08-07T08:46:34.154Z,100863.13
2022-08-07T08:52:13.694Z,100861.94
2022-08-07T08:57:21.470Z,100844.75
2022-08-07T09:02:41.697Z,100845.22
2022-08-07T09:08:17.855Z,100842.59
2022-08-07T09:13:51.958Z,100837.09
2022-08-07T09:19:50.700Z,100835.03
2022-08-07T09:25:17.244Z,100845.34
2022-08-07T09:30:20.763Z,100831.72
2022-08-07T09:36:05.468Z,100829.88
2022-08-07T09:41:36.258Z,100835.72
2022-08-07T09:47:52.427Z,100830.13
2022-08-07T09:52:52.216Z,100831.56
2022-08-07T09:58:12.844Z,100821.94
2022-08-07T10:04:07.118Z,100817.75
2022-08-07T10:09:15.429Z,100811.22
2022-08-07T10:14:55.517Z,100794.78
2022-08-07T10:20:22.041Z,100797.91
2022-08-07T10:26:14.927Z,100796.28
2022-08-07T10:31:53.951Z,100780.53
2022-08-07T10:37:14.511Z,100772.25
2022-08-07T10:42:20.981Z,100753.41
2022-08-07T10:48:03.361Z,100753.56
2022-08-07T10:53:21.417Z,100743.06
2022-08-07T10:58:56.685Z,100757.34
2022-08-07T11:04:32.254Z,100729.19
2022-08-07T11:10:10.033Z,100741.19
2022-08-07T11:15:14.906Z,100734.28
2022-08-07T11:20:24.637Z,100743.97
2022-08-07T11:25:47.850Z,100721.50
2022-08-07T11:30:57.929Z,100721.38
2022-08-07T11:36:25.150Z,100708.59
2022-08-07T11:42:02.132Z,100717.66
2022-08-07T11:47:22.718Z,100706.91
2022-08-07T11:52:42.373Z,100698.13
2022-08-07T11:57:58.487Z,100696.97
2022-08-07T12:03:46.916Z,100690.16
2022-08-07T12:08:55.923Z,100691.69
2022-08-07T12:14:08.331Z,100689.38
2022-08-07T12:19:35.928Z,100685.53
2022-08-07T12:26:02.952Z,100689.03
2022-08-07T12:31:09.244Z,100688.22
2022-08-07T12:36:11.444Z,100682.66
2022-08-07T12:41:14.671Z,100668.09
2022-08-07T12:47:03.328Z,100661.06
2022-08-07T12:52:19.138Z,100666.50
2022-08-07T12:57:29.886Z,100656.31
2022-08-07T13:02:58.798Z,100658.94
2022-08-07T13:08:23.299Z,100648.38
2022-08-07T13:14:07.989Z,100647.59
2022-08-07T13:19:50.899Z,100646.34
2022-08-07T13:25:09.323Z,100644.38
2022-08-07T13:30:19.374Z,100637.75
2022-08-07T13:36:00.334Z,100623.63
2022-08-07T13:41:11.616Z,100615.22
2022-08-07T13:46:24.830Z,100615.88
2022-08-07T13:52:05.011Z,100611.63
2022-08-07T13:56:59.722Z,100599.56
2022-08-07T14:02:12.801Z,100605.03
2022-08-07T14:07:15.205Z,100600.22
2022-08-07T14:12:36.165Z,100596.41
2022-08-07T14:18:23.497Z,100588.44
2022-08-07T14:23:59.005Z,100595.22
2022-08-07T14:28:59.613Z,100581.09
2022-08-07T14:34:07.457Z,100580.41
2022-08-07T14:39:12.576Z,100573.13
2022-08-07T14:44:35.835Z,100576.31
2022-08-07T14:55:02.695Z,100552.13
2022-08-07T15:00:06.997Z,100568.00
2022-08-07T15:05:20.217Z,100548.88
2022-08-07T15:10:29.615Z,100555.31
2022-08-07T15:15:41.945Z,100556.91
2022-08-07T15:20:55.291Z,100559.69
2022-08-07T15:25:59.541Z,100550.94
2022-08-07T15:31:05.818Z,100552.41
2022-08-07T15:36:09.326Z,100549.94
2022-08-07T15:41:24.214Z,100543.38
2022-08-07T15:46:48.588Z,100528.16
2022-08-07T15:57:00.634Z,100534.84
2022-08-07T16:02:04.576Z,100533.00
2022-08-07T16:08:28.373Z,100536.59
2022-08-07T16:13:17.930Z,100522.47
2022-08-07T16:19:03.521Z,100524.13
2022-08-07T16:24:35.648Z,100524.44
2022-08-07T16:30:30.659Z,100516.88
2022-08-07T16:35:58.813Z,100525.19
2022-08-07T16:41:20.895Z,100528.28
2022-08-07T16:47:05.921Z,100523.88
2022-08-07T16:52:51.002Z,100526.94
2022-08-07T16:58:02.754Z,100522.53
2022-08-07T17:03:11.188Z,100514.84
2022-08-07T17:09:09.626Z,100519.53
2022-08-07T17:14:19.296Z,100526.00
2022-08-07T17:20:02.762Z,100517.25
2022-08-07T17:25:10.647Z,100518.03
2022-08-07T17:30:20.235Z,100534.53
2022-08-07T17:35:56.654Z,100539.72
2022-08-07T17:42:03.526Z,100544.72
2022-08-07T17:46:58.701Z,100541.44
2022-08-07T17:52:30.771Z,100542.06
2022-08-07T17:57:58.801Z,100546.53
2022-08-07T18:03:25.417Z,100544.81
2022-08-07T18:09:05.805Z,100545.34
2022-08-07T18:14:27.057Z,100546.84
2022-08-07T18:21:06.354Z,100550.09
2022-08-07T18:25:39.289Z,100553.72
2022-08-07T18:31:00.075Z,100557.25
2022-08-07T18:36:06.037Z,100567.25
2022-08-07T18:41:22.427Z,100573.22
2022-08-07T18:46:28.196Z,100583.41
2022-08-07T18:52:37.675Z,100589.63
2022-08-07T18:57:30.712Z,100591.84
2022-08-07T19:02:42.249Z,100602.94
2022-08-07T19:08:07.644Z,100613.94
2022-08-07T19:13:23.134Z,100622.28
2022-08-07T19:18:44.604Z,100628.53
2022-08-07T19:23:58.767Z,100629.38
2022-08-07T19:31:00.623Z,100632.34
2022-08-07T19:34:33.771Z,100646.22
2022-08-07T19:39:57.537Z,100643.03
2022-08-07T19:45:08.543Z,100653.53
2022-08-07T19:50:41.299Z,100660.53
2022-08-07T19:55:56.446Z,100657.16
2022-08-07T20:00:57.425Z,100676.88
2022-08-07T20:06:03.066Z,100675.06
2022-08-07T20:11:15.119Z,100673.38
2022-08-07T20:16:32.234Z,100682.88
2022-08-07T20:21:42.009Z,100680.09
2022-08-07T20:26:54.548Z,100689.22
2022-08-07T20:31:59.739Z,100687.53
2022-08-07T20:37:05.789Z,100683.97
2022-08-07T20:42:11.614Z,100678.13
2022-08-07T20:47:14.673Z,100684.56
2022-08-07T20:52:24.596Z,100681.06
2022-08-07T20:58:03.424Z,100681.69
2022-08-07T21:03:06.802Z,100680.66
2022-08-07T21:08:12.581Z,100680.56
2022-08-07T21:13:19.038Z,100678.53
2022-08-07T21:18:33.925Z,100679.13
2022-08-07T21:24:10.186Z,100685.09
2022-08-07T21:29:18.228Z,100688.94
2022-08-07T21:34:48.602Z,100683.75
2022-08-07T21:39:56.514Z,100686.03
2022-08-07T21:46:07.500Z,100679.38
2022-08-07T21:50:52.363Z,100688.28
2022-08-07T21:56:16.563Z,100689.41
2022-08-07T22:02:07.418Z,100691.88
2022-08-07T22:07:06.534Z,100694.94
2022-08-07T22:12:24.679Z,100693.16
2022-08-07T22:17:36.302Z,100701.88
2022-08-07T22:22:48.561Z,100701.81
2022-08-07T22:28:29.800Z,100709.25
2022-08-07T22:33:52.732Z,100707.25
2022-08-07T22:39:04.743Z,100711.88
2022-08-07T22:44:12.907Z,100707.63
2022-08-07T22:49:54.133Z,100710.38
2022-08-07T22:55:23.320Z,100718.47
2022-08-07T23:01:07.421Z,100723.53
2022-08-07T23:06:30.250Z,100726.47
2022-08-07T23:12:32.907Z,100730.72
2022-08-07T23:18:01.537Z,100734.97
2022-08-07T23:24:04.088Z,100736.91
2022-08-07T23:28:54.589Z,100740.69
2022-08-07T23:34:38.295Z,100731.13
2022-08-07T23:40:08.340Z,100732.28
2022-08-07T23:45:49.869Z,100733.00
2022-08-07T23:51:04.837Z,100728.41
2022-08-07T23:56:35.126Z,100734.09
